Fort Thomas, Arizona
Current Conditions -  °F | °C
As of 4:51 AM on Monday 26 Jan 2015 (Local Time) from KSAD Reporting Station
Clear Clear  
Wind Chill: 41°   Ceiling: Unl
Heat Index: 47°   Visibility: 10mi
Dew Point: 23°   Wind: 15mph
Humidity: 39%   Direction: 120°ESE
Pressure: 30.22"   Gusts: NA
Location:  33.04°N, 109.96°W
Report Text: KSAD 261151Z AUTO 12013KT 10SM CLR 08/M05 A3022 RMK AO2 SLP211 T00831050 10100 20083 57006
Loading
Personal Weather Stations






























Interactive Weather Map New forecast layout! Learn more

10-Day Weather Forecast

Advertisements
Track Severe Weather on mobile